Accueil
METAR-TAF:

METAR-TAF

Aéroports :

Aéroport de Londres-City

Londres, Angleterre

latitude: 51-30N, longitude: 000-03E, altitude: 5 m

Observation

Le bulletin a été fait il y a 35 minutes, à 19:50 UTC
Vent 10 kt de sud-ouest
Température 19°C
Humidité 56%
Pression 1014 hPa
Visibilité 10 km ou plus

METAR: EGLC 041950Z AUTO 23010KT 9999 NCD 19/10 Q1014

Heure: 21:25 (20:25 UTC)

Prévision

Le bulletin a été fait il y a 3 heures et 32 minutes, à 16:53 UTC
Prévision valable du 04 à 18 UTC au 05 à 03 UTC
Vent 10 kt de sud-ouest
Visibilité 10 km ou plus
Quelques nuages à une hauteur de 2000 ft
Probabilité 30% :
Temporairement
du 05 à 00 UTC au 05 à 03 UTC
Nuages fragmentés à une hauteur de 1200 ft

TAF: EGLC 041653Z 0418/0503 23010KT 9999 FEW020 PROB30 TEMPO 0500/0503 BKN012

Observations et prévisions météorologiques de plus de 4000 aéroports (messages METAR et TAF).

Les stations disponibles sont représentées par des disques jaunes et rouges sur la carte.

Passer la souris dessus pour voir le nom de la station.

Cliquer dessus pour voir les observations et prévisions météorologiques.

Pour changer de carte: cliquez sur les boutons verts avec une croix noire pour zoomer, sur le bouton vert avec un tiret pour effectuer un zoom arrière, ou sur les flèches vertes pour les cartes adjacentes.


METAR-TAF: